sensor_id;sensor_type;location;lat;lon;timestamp;P1;durP1;ratioP1;P2;durP2;ratioP2
37455;SDS011;23316;50.718;7.328;2024-02-23T00:02:04;0.68;;;0.20;;
37455;SDS011;23316;50.718;7.328;2024-02-23T00:04:32;0.40;;;0.20;;
37455;SDS011;23316;50.718;7.328;2024-02-23T00:06:59;1.08;;;0.20;;
37455;SDS011;23316;50.718;7.328;2024-02-23T00:09:28;0.70;;;0.30;;
37455;SDS011;23316;50.718;7.328;2024-02-23T00:11:56;0.32;;;0.20;;
37455;SDS011;23316;50.718;7.328;2024-02-23T00:14:24;0.90;;;0.20;;
37455;SDS011;23316;50.718;7.328;2024-02-23T00:16:51;1.38;;;0.30;;
37455;SDS011;23316;50.718;7.328;2024-02-23T00:19:18;0.52;;;0.20;;
37455;SDS011;23316;50.718;7.328;2024-02-23T00:21:45;0.45;;;0.10;;
37455;SDS011;23316;50.718;7.328;2024-02-23T00:24:15;0.45;;;0.15;;
37455;SDS011;23316;50.718;7.328;2024-02-23T00:26:43;1.08;;;0.35;;
37455;SDS011;23316;50.718;7.328;2024-02-23T00:29:11;0.47;;;0.20;;
37455;SDS011;23316;50.718;7.328;2024-02-23T00:31:39;0.60;;;0.30;;
37455;SDS011;23316;50.718;7.328;2024-02-23T00:34:06;0.28;;;0.20;;
37455;SDS011;23316;50.718;7.328;2024-02-23T00:36:36;2.55;;;0.20;;
37455;SDS011;23316;50.718;7.328;2024-02-23T00:39:04;0.15;;;0.10;;
37455;SDS011;23316;50.718;7.328;2024-02-23T00:41:32;1.17;;;0.10;;
37455;SDS011;23316;50.718;7.328;2024-02-23T00:44:00;0.17;;;0.10;;
37455;SDS011;23316;50.718;7.328;2024-02-23T00:46:28;0.10;;;0.10;;
37455;SDS011;23316;50.718;7.328;2024-02-23T00:48:56;0.03;;;0.03;;
37455;SDS011;23316;50.718;7.328;2024-02-23T00:51:23;0.30;;;0.15;;
37455;SDS011;23316;50.718;7.328;2024-02-23T00:53:50;0.35;;;0.10;;
37455;SDS011;23316;50.718;7.328;2024-02-23T00:56:17;0.35;;;0.10;;
37455;SDS011;23316;50.718;7.328;2024-02-23T00:58:45;0.03;;;0.03;;
37455;SDS011;23316;50.718;7.328;2024-02-23T01:01:12;0.40;;;0.20;;
37455;SDS011;23316;50.718;7.328;2024-02-23T01:03:40;0.20;;;0.13;;
37455;SDS011;23316;50.718;7.328;2024-02-23T01:06:08;0.10;;;0.00;;
37455;SDS011;23316;50.718;7.328;2024-02-23T01:08:35;0.68;;;0.17;;
37455;SDS011;23316;50.718;7.328;2024-02-23T01:11:02;0.40;;;0.10;;
37455;SDS011;23316;50.718;7.328;2024-02-23T01:13:29;0.22;;;0.00;;
37455;SDS011;23316;50.718;7.328;2024-02-23T01:15:57;0.20;;;0.10;;
37455;SDS011;23316;50.718;7.328;2024-02-23T01:18:24;0.85;;;0.10;;
37455;SDS011;23316;50.718;7.328;2024-02-23T01:20:53;0.20;;;0.10;;
37455;SDS011;23316;50.718;7.328;2024-02-23T01:23:20;0.10;;;0.10;;
37455;SDS011;23316;50.718;7.328;2024-02-23T01:25:47;0.03;;;0.00;;
37455;SDS011;23316;50.718;7.328;2024-02-23T01:28:14;0.08;;;0.08;;
37455;SDS011;23316;50.718;7.328;2024-02-23T01:30:41;1.85;;;0.20;;
37455;SDS011;23316;50.718;7.328;2024-02-23T01:33:09;0.40;;;0.10;;
37455;SDS011;23316;50.718;7.328;2024-02-23T01:35:36;1.02;;;0.17;;
37455;SDS011;23316;50.718;7.328;2024-02-23T01:38:04;0.00;;;0.00;;
37455;SDS011;23316;50.718;7.328;2024-02-23T01:40:32;0.10;;;0.00;;
37455;SDS011;23316;50.718;7.328;2024-02-23T01:43:02;0.28;;;0.10;;
37455;SDS011;23316;50.718;7.328;2024-02-23T01:45:30;0.20;;;0.10;;
37455;SDS011;23316;50.718;7.328;2024-02-23T01:47:57;4.70;;;0.30;;
37455;SDS011;23316;50.718;7.328;2024-02-23T01:50:25;0.55;;;0.20;;
37455;SDS011;23316;50.718;7.328;2024-02-23T01:52:54;2.00;;;0.43;;
37455;SDS011;23316;50.718;7.328;2024-02-23T01:55:28;0.65;;;0.30;;
37455;SDS011;23316;50.718;7.328;2024-02-23T01:57:56;4.50;;;0.30;;
37455;SDS011;23316;50.718;7.328;2024-02-23T02:00:23;6.95;;;0.55;;
37455;SDS011;23316;50.718;7.328;2024-02-23T02:02:51;7.68;;;0.43;;
37455;SDS011;23316;50.718;7.328;2024-02-23T02:05:18;7.32;;;0.93;;
37455;SDS011;23316;50.718;7.328;2024-02-23T02:07:45;20.80;;;1.15;;
37455;SDS011;23316;50.718;7.328;2024-02-23T02:10:16;31.35;;;1.75;;
37455;SDS011;23316;50.718;7.328;2024-02-23T02:12:45;28.13;;;1.23;;
37455;SDS011;23316;50.718;7.328;2024-02-23T02:15:12;9.93;;;0.93;;
37455;SDS011;23316;50.718;7.328;2024-02-23T02:17:40;10.93;;;0.77;;
37455;SDS011;23316;50.718;7.328;2024-02-23T02:20:07;2.67;;;0.60;;
37455;SDS011;23316;50.718;7.328;2024-02-23T02:22:38;2.70;;;0.52;;
37455;SDS011;23316;50.718;7.328;2024-02-23T02:25:06;3.47;;;0.80;;
37455;SDS011;23316;50.718;7.328;2024-02-23T02:27:34;5.47;;;0.50;;
37455;SDS011;23316;50.718;7.328;2024-02-23T02:30:03;10.52;;;0.47;;
37455;SDS011;23316;50.718;7.328;2024-02-23T02:32:31;7.30;;;0.57;;
37455;SDS011;23316;50.718;7.328;2024-02-23T02:34:58;5.20;;;0.57;;
37455;SDS011;23316;50.718;7.328;2024-02-23T02:37:26;2.75;;;0.57;;
37455;SDS011;23316;50.718;7.328;2024-02-23T02:39:53;1.48;;;0.40;;
37455;SDS011;23316;50.718;7.328;2024-02-23T02:42:20;3.42;;;0.30;;
37455;SDS011;23316;50.718;7.328;2024-02-23T02:44:47;8.43;;;0.43;;
37455;SDS011;23316;50.718;7.328;2024-02-23T02:47:16;11.20;;;0.95;;
37455;SDS011;23316;50.718;7.328;2024-02-23T02:49:43;1.63;;;0.20;;
37455;SDS011;23316;50.718;7.328;2024-02-23T02:52:10;4.30;;;0.47;;
37455;SDS011;23316;50.718;7.328;2024-02-23T02:54:38;2.78;;;0.30;;
37455;SDS011;23316;50.718;7.328;2024-02-23T02:57:05;3.97;;;0.50;;
37455;SDS011;23316;50.718;7.328;2024-02-23T02:59:33;0.73;;;0.30;;
37455;SDS011;23316;50.718;7.328;2024-02-23T03:02:01;3.97;;;0.40;;
37455;SDS011;23316;50.718;7.328;2024-02-23T03:04:29;6.13;;;0.40;;
37455;SDS011;23316;50.718;7.328;2024-02-23T03:06:56;5.90;;;0.50;;
37455;SDS011;23316;50.718;7.328;2024-02-23T03:09:24;1.75;;;0.45;;
37455;SDS011;23316;50.718;7.328;2024-02-23T03:11:51;5.20;;;0.30;;
37455;SDS011;23316;50.718;7.328;2024-02-23T03:17:27;1.65;;;0.47;;
37455;SDS011;23316;50.718;7.328;2024-02-23T03:19:56;1.52;;;0.30;;
37455;SDS011;23316;50.718;7.328;2024-02-23T03:22:24;0.93;;;0.17;;
37455;SDS011;23316;50.718;7.328;2024-02-23T03:24:52;0.68;;;0.20;;
37455;SDS011;23316;50.718;7.328;2024-02-23T03:27:19;2.25;;;0.50;;
37455;SDS011;23316;50.718;7.328;2024-02-23T03:29:47;1.88;;;0.40;;
37455;SDS011;23316;50.718;7.328;2024-02-23T03:32:14;1.15;;;0.40;;
37455;SDS011;23316;50.718;7.328;2024-02-23T03:34:42;0.77;;;0.20;;
37455;SDS011;23316;50.718;7.328;2024-02-23T03:37:11;3.28;;;0.40;;
37455;SDS011;23316;50.718;7.328;2024-02-23T03:39:39;1.17;;;0.30;;
37455;SDS011;23316;50.718;7.328;2024-02-23T03:42:06;2.08;;;0.40;;
37455;SDS011;23316;50.718;7.328;2024-02-23T03:44:33;1.23;;;0.30;;
37455;SDS011;23316;50.718;7.328;2024-02-23T03:47:01;1.85;;;0.32;;
37455;SDS011;23316;50.718;7.328;2024-02-23T03:49:28;1.38;;;0.52;;
37455;SDS011;23316;50.718;7.328;2024-02-23T03:51:55;1.48;;;0.40;;
37455;SDS011;23316;50.718;7.328;2024-02-23T03:54:24;1.15;;;0.40;;
37455;SDS011;23316;50.718;7.328;2024-02-23T03:56:52;1.33;;;0.30;;
37455;SDS011;23316;50.718;7.328;2024-02-23T03:59:19;1.02;;;0.40;;
37455;SDS011;23316;50.718;7.328;2024-02-23T04:01:46;0.70;;;0.32;;
37455;SDS011;23316;50.718;7.328;2024-02-23T04:04:13;0.85;;;0.20;;
37455;SDS011;23316;50.718;7.328;2024-02-23T04:06:41;1.58;;;0.38;;
37455;SDS011;23316;50.718;7.328;2024-02-23T04:09:08;0.25;;;0.25;;
37455;SDS011;23316;50.718;7.328;2024-02-23T04:11:37;1.77;;;0.45;;
37455;SDS011;23316;50.718;7.328;2024-02-23T04:14:04;1.50;;;0.50;;
37455;SDS011;23316;50.718;7.328;2024-02-23T04:16:31;1.10;;;0.30;;
37455;SDS011;23316;50.718;7.328;2024-02-23T04:18:59;1.00;;;0.20;;
37455;SDS011;23316;50.718;7.328;2024-02-23T04:21:26;0.75;;;0.25;;
37455;SDS011;23316;50.718;7.328;2024-02-23T04:23:53;0.95;;;0.30;;
37455;SDS011;23316;50.718;7.328;2024-02-23T04:26:20;1.08;;;0.20;;
37455;SDS011;23316;50.718;7.328;2024-02-23T04:28:49;2.05;;;0.40;;
37455;SDS011;23316;50.718;7.328;2024-02-23T04:31:16;4.68;;;0.57;;
37455;SDS011;23316;50.718;7.328;2024-02-23T04:33:43;13.52;;;1.33;;
37455;SDS011;23316;50.718;7.328;2024-02-23T04:36:10;7.43;;;0.50;;
37455;SDS011;23316;50.718;7.328;2024-02-23T04:38:38;1.40;;;0.32;;
37455;SDS011;23316;50.718;7.328;2024-02-23T04:41:05;4.70;;;0.80;;
37455;SDS011;23316;50.718;7.328;2024-02-23T04:43:32;3.40;;;0.40;;
37455;SDS011;23316;50.718;7.328;2024-02-23T04:46:01;3.90;;;0.70;;
37455;SDS011;23316;50.718;7.328;2024-02-23T04:48:28;1.83;;;0.60;;
37455;SDS011;23316;50.718;7.328;2024-02-23T04:50:56;1.08;;;0.25;;
37455;SDS011;23316;50.718;7.328;2024-02-23T04:53:23;4.35;;;0.50;;
37455;SDS011;23316;50.718;7.328;2024-02-23T04:55:51;1.58;;;0.30;;
37455;SDS011;23316;50.718;7.328;2024-02-23T04:58:18;0.40;;;0.30;;
37455;SDS011;23316;50.718;7.328;2024-02-23T05:00:46;3.60;;;0.50;;
37455;SDS011;23316;50.718;7.328;2024-02-23T05:03:14;0.52;;;0.30;;
37455;SDS011;23316;50.718;7.328;2024-02-23T05:05:42;0.73;;;0.32;;
37455;SDS011;23316;50.718;7.328;2024-02-23T05:08:09;0.93;;;0.40;;
37455;SDS011;23316;50.718;7.328;2024-02-23T05:10:36;3.97;;;0.35;;
37455;SDS011;23316;50.718;7.328;2024-02-23T05:13:03;6.00;;;0.50;;
37455;SDS011;23316;50.718;7.328;2024-02-23T05:15:31;1.75;;;0.40;;
37455;SDS011;23316;50.718;7.328;2024-02-23T05:17:57;5.68;;;0.63;;
37455;SDS011;23316;50.718;7.328;2024-02-23T05:20:25;0.52;;;0.52;;
37455;SDS011;23316;50.718;7.328;2024-02-23T05:22:53;2.65;;;0.52;;
37455;SDS011;23316;50.718;7.328;2024-02-23T05:25:20;1.85;;;0.50;;
37455;SDS011;23316;50.718;7.328;2024-02-23T05:27:47;2.35;;;0.57;;
37455;SDS011;23316;50.718;7.328;2024-02-23T05:30:15;1.30;;;0.52;;
37455;SDS011;23316;50.718;7.328;2024-02-23T05:32:42;1.65;;;0.60;;
37455;SDS011;23316;50.718;7.328;2024-02-23T05:35:09;6.18;;;0.60;;
37455;SDS011;23316;50.718;7.328;2024-02-23T05:37:38;4.97;;;0.60;;
37455;SDS011;23316;50.718;7.328;2024-02-23T05:40:05;1.85;;;0.50;;
37455;SDS011;23316;50.718;7.328;2024-02-23T05:42:35;3.33;;;0.88;;
37455;SDS011;23316;50.718;7.328;2024-02-23T05:45:03;1.27;;;0.57;;
37455;SDS011;23316;50.718;7.328;2024-02-23T05:47:34;4.07;;;0.68;;
37455;SDS011;23316;50.718;7.328;2024-02-23T05:50:01;5.65;;;0.95;;
37455;SDS011;23316;50.718;7.328;2024-02-23T05:52:29;3.88;;;0.50;;
37455;SDS011;23316;50.718;7.328;2024-02-23T05:54:59;2.45;;;0.60;;
37455;SDS011;23316;50.718;7.328;2024-02-23T05:57:26;15.60;;;8.35;;
37455;SDS011;23316;50.718;7.328;2024-02-23T05:59:54;34.67;;;20.13;;
37455;SDS011;23316;50.718;7.328;2024-02-23T06:02:22;17.90;;;11.18;;
37455;SDS011;23316;50.718;7.328;2024-02-23T06:04:49;15.13;;;7.88;;
37455;SDS011;23316;50.718;7.328;2024-02-23T06:07:16;12.18;;;5.63;;
37455;SDS011;23316;50.718;7.328;2024-02-23T06:09:46;9.60;;;4.20;;
37455;SDS011;23316;50.718;7.328;2024-02-23T06:12:14;11.95;;;4.65;;
37455;SDS011;23316;50.718;7.328;2024-02-23T06:14:42;13.85;;;3.92;;
37455;SDS011;23316;50.718;7.328;2024-02-23T06:17:09;13.90;;;3.47;;
37455;SDS011;23316;50.718;7.328;2024-02-23T06:19:36;12.25;;;3.65;;
37455;SDS011;23316;50.718;7.328;2024-02-23T06:22:03;8.15;;;3.00;;
37455;SDS011;23316;50.718;7.328;2024-02-23T06:24:31;7.13;;;3.17;;
37455;SDS011;23316;50.718;7.328;2024-02-23T06:26:58;4.28;;;2.72;;
37455;SDS011;23316;50.718;7.328;2024-02-23T06:29:27;6.70;;;2.08;;
37455;SDS011;23316;50.718;7.328;2024-02-23T06:31:55;7.15;;;2.47;;
37455;SDS011;23316;50.718;7.328;2024-02-23T06:34:22;15.57;;;6.43;;
37455;SDS011;23316;50.718;7.328;2024-02-23T06:36:49;26.90;;;11.60;;
37455;SDS011;23316;50.718;7.328;2024-02-23T06:39:16;19.40;;;7.90;;
37455;SDS011;23316;50.718;7.328;2024-02-23T06:41:45;14.73;;;5.93;;
37455;SDS011;23316;50.718;7.328;2024-02-23T06:44:12;8.43;;;4.20;;
37455;SDS011;23316;50.718;7.328;2024-02-23T06:46:41;8.13;;;3.45;;
37455;SDS011;23316;50.718;7.328;2024-02-23T06:49:09;7.28;;;2.95;;
37455;SDS011;23316;50.718;7.328;2024-02-23T06:51:37;6.82;;;2.72;;
37455;SDS011;23316;50.718;7.328;2024-02-23T06:54:06;3.53;;;1.90;;
37455;SDS011;23316;50.718;7.328;2024-02-23T06:56:33;9.10;;;2.80;;
37455;SDS011;23316;50.718;7.328;2024-02-23T06:59:02;8.50;;;2.42;;
37455;SDS011;23316;50.718;7.328;2024-02-23T07:01:29;7.28;;;2.47;;
37455;SDS011;23316;50.718;7.328;2024-02-23T07:03:58;10.98;;;2.55;;
37455;SDS011;23316;50.718;7.328;2024-02-23T07:06:25;7.28;;;2.00;;
37455;SDS011;23316;50.718;7.328;2024-02-23T07:08:54;4.72;;;1.60;;
37455;SDS011;23316;50.718;7.328;2024-02-23T07:11:21;4.63;;;1.80;;
37455;SDS011;23316;50.718;7.328;2024-02-23T07:13:48;5.55;;;1.75;;
37455;SDS011;23316;50.718;7.328;2024-02-23T07:16:16;6.18;;;1.90;;
37455;SDS011;23316;50.718;7.328;2024-02-23T07:18:43;6.82;;;1.90;;
37455;SDS011;23316;50.718;7.328;2024-02-23T07:21:12;4.97;;;1.75;;
37455;SDS011;23316;50.718;7.328;2024-02-23T07:23:39;4.55;;;1.70;;
37455;SDS011;23316;50.718;7.328;2024-02-23T07:26:06;9.43;;;1.65;;
37455;SDS011;23316;50.718;7.328;2024-02-23T07:28:34;8.15;;;1.40;;
37455;SDS011;23316;50.718;7.328;2024-02-23T07:31:01;23.83;;;1.95;;
37455;SDS011;23316;50.718;7.328;2024-02-23T07:33:28;12.30;;;1.63;;
37455;SDS011;23316;50.718;7.328;2024-02-23T07:35:55;26.85;;;2.33;;
37455;SDS011;23316;50.718;7.328;2024-02-23T07:38:24;17.02;;;7.68;;
37455;SDS011;23316;50.718;7.328;2024-02-23T07:40:51;21.67;;;12.15;;
37455;SDS011;23316;50.718;7.328;2024-02-23T07:43:18;18.20;;;9.48;;
37455;SDS011;23316;50.718;7.328;2024-02-23T07:45:46;14.52;;;5.70;;
37455;SDS011;23316;50.718;7.328;2024-02-23T07:48:13;10.07;;;3.90;;
37455;SDS011;23316;50.718;7.328;2024-02-23T07:50:40;15.07;;;3.78;;
37455;SDS011;23316;50.718;7.328;2024-02-23T07:53:07;8.40;;;3.00;;
37455;SDS011;23316;50.718;7.328;2024-02-23T07:55:36;19.23;;;4.25;;
37455;SDS011;23316;50.718;7.328;2024-02-23T07:58:04;10.40;;;3.40;;
37455;SDS011;23316;50.718;7.328;2024-02-23T08:00:32;17.73;;;3.55;;
37455;SDS011;23316;50.718;7.328;2024-02-23T08:03:00;28.20;;;3.30;;
37455;SDS011;23316;50.718;7.328;2024-02-23T08:05:27;18.88;;;3.20;;
37455;SDS011;23316;50.718;7.328;2024-02-23T08:07:54;21.33;;;3.50;;
37455;SDS011;23316;50.718;7.328;2024-02-23T08:10:22;14.68;;;2.92;;
37455;SDS011;23316;50.718;7.328;2024-02-23T08:12:52;15.32;;;2.45;;
37455;SDS011;23316;50.718;7.328;2024-02-23T08:15:19;15.15;;;2.20;;
37455;SDS011;23316;50.718;7.328;2024-02-23T08:17:47;16.85;;;2.50;;
37455;SDS011;23316;50.718;7.328;2024-02-23T08:20:15;15.95;;;2.20;;
37455;SDS011;23316;50.718;7.328;2024-02-23T08:22:42;19.80;;;3.40;;
37455;SDS011;23316;50.718;7.328;2024-02-23T08:25:09;10.48;;;2.35;;
37455;SDS011;23316;50.718;7.328;2024-02-23T08:27:37;9.93;;;2.10;;
37455;SDS011;23316;50.718;7.328;2024-02-23T08:30:07;17.40;;;2.38;;
37455;SDS011;23316;50.718;7.328;2024-02-23T08:32:36;8.13;;;1.85;;
37455;SDS011;23316;50.718;7.328;2024-02-23T08:35:03;8.45;;;1.85;;
37455;SDS011;23316;50.718;7.328;2024-02-23T08:37:31;5.82;;;1.77;;
37455;SDS011;23316;50.718;7.328;2024-02-23T08:39:59;10.13;;;1.95;;
37455;SDS011;23316;50.718;7.328;2024-02-23T08:42:27;6.28;;;1.42;;
37455;SDS011;23316;50.718;7.328;2024-02-23T08:44:55;4.88;;;1.60;;
37455;SDS011;23316;50.718;7.328;2024-02-23T08:47:23;3.08;;;1.40;;
37455;SDS011;23316;50.718;7.328;2024-02-23T08:49:53;7.45;;;1.85;;
37455;SDS011;23316;50.718;7.328;2024-02-23T08:52:21;4.20;;;1.58;;
37455;SDS011;23316;50.718;7.328;2024-02-23T08:54:48;4.15;;;1.23;;
37455;SDS011;23316;50.718;7.328;2024-02-23T08:57:15;2.60;;;1.30;;
37455;SDS011;23316;50.718;7.328;2024-02-23T08:59:44;4.18;;;1.40;;
37455;SDS011;23316;50.718;7.328;2024-02-23T09:02:12;3.28;;;1.27;;
37455;SDS011;23316;50.718;7.328;2024-02-23T09:04:41;5.95;;;1.30;;
37455;SDS011;23316;50.718;7.328;2024-02-23T09:07:10;3.35;;;1.20;;
37455;SDS011;23316;50.718;7.328;2024-02-23T09:09:37;5.53;;;1.25;;
37455;SDS011;23316;50.718;7.328;2024-02-23T09:12:04;3.00;;;1.20;;
37455;SDS011;23316;50.718;7.328;2024-02-23T09:14:35;2.53;;;1.05;;
37455;SDS011;23316;50.718;7.328;2024-02-23T09:17:04;3.05;;;1.30;;
37455;SDS011;23316;50.718;7.328;2024-02-23T09:19:34;4.72;;;1.00;;
37455;SDS011;23316;50.718;7.328;2024-02-23T09:22:03;4.32;;;1.38;;
37455;SDS011;23316;50.718;7.328;2024-02-23T09:24:30;2.58;;;0.90;;
37455;SDS011;23316;50.718;7.328;2024-02-23T09:26:58;2.92;;;1.10;;
37455;SDS011;23316;50.718;7.328;2024-02-23T09:29:25;3.17;;;1.38;;
37455;SDS011;23316;50.718;7.328;2024-02-23T09:31:52;2.65;;;0.98;;
37455;SDS011;23316;50.718;7.328;2024-02-23T09:34:19;2.90;;;0.90;;
37455;SDS011;23316;50.718;7.328;2024-02-23T09:36:46;2.85;;;1.05;;
37455;SDS011;23316;50.718;7.328;2024-02-23T09:39:15;2.00;;;0.90;;
37455;SDS011;23316;50.718;7.328;2024-02-23T09:41:42;2.25;;;0.80;;
37455;SDS011;23316;50.718;7.328;2024-02-23T09:44:09;1.80;;;1.05;;
37455;SDS011;23316;50.718;7.328;2024-02-23T09:46:38;1.77;;;0.80;;
37455;SDS011;23316;50.718;7.328;2024-02-23T09:49:09;1.73;;;0.75;;
37455;SDS011;23316;50.718;7.328;2024-02-23T09:51:38;2.10;;;0.98;;
37455;SDS011;23316;50.718;7.328;2024-02-23T09:54:06;4.57;;;0.95;;
37455;SDS011;23316;50.718;7.328;2024-02-23T09:56:35;2.35;;;0.77;;
37455;SDS011;23316;50.718;7.328;2024-02-23T09:59:03;4.25;;;1.00;;
37455;SDS011;23316;50.718;7.328;2024-02-23T10:01:31;2.08;;;1.10;;
37455;SDS011;23316;50.718;7.328;2024-02-23T10:04:00;2.70;;;1.00;;
37455;SDS011;23316;50.718;7.328;2024-02-23T10:06:28;5.90;;;0.90;;
37455;SDS011;23316;50.718;7.328;2024-02-23T10:08:56;16.65;;;1.05;;
37455;SDS011;23316;50.718;7.328;2024-02-23T10:11:23;8.73;;;1.33;;
37455;SDS011;23316;50.718;7.328;2024-02-23T10:13:52;9.43;;;1.90;;
37455;SDS011;23316;50.718;7.328;2024-02-23T10:16:19;26.08;;;2.25;;
37455;SDS011;23316;50.718;7.328;2024-02-23T10:18:47;2.88;;;1.10;;
37455;SDS011;23316;50.718;7.328;2024-02-23T10:21:15;8.45;;;1.27;;
37455;SDS011;23316;50.718;7.328;2024-02-23T10:23:43;6.68;;;1.35;;
37455;SDS011;23316;50.718;7.328;2024-02-23T10:26:11;5.80;;;1.40;;
37455;SDS011;23316;50.718;7.328;2024-02-23T10:28:38;3.10;;;1.13;;
37455;SDS011;23316;50.718;7.328;2024-02-23T10:31:07;5.07;;;0.80;;
37455;SDS011;23316;50.718;7.328;2024-02-23T10:33:34;5.90;;;1.10;;
37455;SDS011;23316;50.718;7.328;2024-02-23T10:36:01;3.47;;;1.20;;
37455;SDS011;23316;50.718;7.328;2024-02-23T10:38:32;2.10;;;0.75;;
37455;SDS011;23316;50.718;7.328;2024-02-23T10:40:59;4.60;;;1.10;;
37455;SDS011;23316;50.718;7.328;2024-02-23T10:43:33;5.53;;;1.08;;
37455;SDS011;23316;50.718;7.328;2024-02-23T10:46:03;2.95;;;0.70;;
37455;SDS011;23316;50.718;7.328;2024-02-23T10:48:35;4.25;;;1.27;;
37455;SDS011;23316;50.718;7.328;2024-02-23T10:51:03;2.30;;;0.73;;
37455;SDS011;23316;50.718;7.328;2024-02-23T10:53:33;2.13;;;0.93;;
37455;SDS011;23316;50.718;7.328;2024-02-23T10:56:01;3.15;;;0.90;;
37455;SDS011;23316;50.718;7.328;2024-02-23T10:58:31;3.08;;;0.90;;
37455;SDS011;23316;50.718;7.328;2024-02-23T11:00:58;1.33;;;0.63;;
37455;SDS011;23316;50.718;7.328;2024-02-23T11:03:28;1.92;;;0.68;;
37455;SDS011;23316;50.718;7.328;2024-02-23T11:05:57;1.80;;;0.70;;
37455;SDS011;23316;50.718;7.328;2024-02-23T11:08:27;3.65;;;1.00;;
37455;SDS011;23316;50.718;7.328;2024-02-23T11:10:55;4.05;;;0.80;;
37455;SDS011;23316;50.718;7.328;2024-02-23T11:13:29;1.95;;;0.82;;
37455;SDS011;23316;50.718;7.328;2024-02-23T11:16:01;3.25;;;0.80;;
37455;SDS011;23316;50.718;7.328;2024-02-23T11:18:29;4.43;;;1.10;;
37455;SDS011;23316;50.718;7.328;2024-02-23T11:21:00;1.83;;;0.63;;
37455;SDS011;23316;50.718;7.328;2024-02-23T11:23:38;2.95;;;0.70;;
37455;SDS011;23316;50.718;7.328;2024-02-23T11:26:09;4.13;;;0.93;;
37455;SDS011;23316;50.718;7.328;2024-02-23T11:28:43;2.65;;;1.05;;
37455;SDS011;23316;50.718;7.328;2024-02-23T11:31:14;3.85;;;1.00;;
37455;SDS011;23316;50.718;7.328;2024-02-23T11:33:47;1.25;;;0.80;;
37455;SDS011;23316;50.718;7.328;2024-02-23T11:36:23;3.08;;;0.90;;
37455;SDS011;23316;50.718;7.328;2024-02-23T11:38:54;1.52;;;0.60;;
37455;SDS011;23316;50.718;7.328;2024-02-23T11:41:23;1.70;;;0.60;;
37455;SDS011;23316;50.718;7.328;2024-02-23T11:43:51;2.28;;;0.70;;
37455;SDS011;23316;50.718;7.328;2024-02-23T11:46:19;3.08;;;0.80;;
37455;SDS011;23316;50.718;7.328;2024-02-23T11:48:47;2.45;;;0.95;;
37455;SDS011;23316;50.718;7.328;2024-02-23T11:51:19;2.65;;;1.13;;
37455;SDS011;23316;50.718;7.328;2024-02-23T11:53:48;1.95;;;0.80;;
37455;SDS011;23316;50.718;7.328;2024-02-23T11:56:16;2.08;;;0.80;;
37455;SDS011;23316;50.718;7.328;2024-02-23T11:58:44;1.42;;;0.63;;
37455;SDS011;23316;50.718;7.328;2024-02-23T12:25:15;1.02;;;0.52;;
37455;SDS011;23316;50.718;7.328;2024-02-23T12:27:43;3.83;;;1.15;;
37455;SDS011;23316;50.718;7.328;2024-02-23T12:30:13;3.42;;;0.77;;
37455;SDS011;23316;50.718;7.328;2024-02-23T12:32:41;4.00;;;0.70;;
37455;SDS011;23316;50.718;7.328;2024-02-23T12:35:10;2.90;;;0.70;;
37455;SDS011;23316;50.718;7.328;2024-02-23T12:37:38;3.33;;;0.65;;
37455;SDS011;23316;50.718;7.328;2024-02-23T12:40:07;1.63;;;0.65;;
37455;SDS011;23316;50.718;7.328;2024-02-23T12:42:36;1.50;;;0.50;;
37455;SDS011;23316;50.718;7.328;2024-02-23T12:45:03;2.10;;;0.52;;
37455;SDS011;23316;50.718;7.328;2024-02-23T12:47:31;1.83;;;0.68;;
37455;SDS011;23316;50.718;7.328;2024-02-23T12:49:58;2.13;;;0.52;;
37455;SDS011;23316;50.718;7.328;2024-02-23T12:52:25;2.70;;;0.95;;
37455;SDS011;23316;50.718;7.328;2024-02-23T12:54:53;2.78;;;0.73;;
37455;SDS011;23316;50.718;7.328;2024-02-23T12:57:20;2.45;;;0.88;;
37455;SDS011;23316;50.718;7.328;2024-02-23T12:59:48;1.63;;;0.65;;
37455;SDS011;23316;50.718;7.328;2024-02-23T13:02:16;1.58;;;0.63;;
37455;SDS011;23316;50.718;7.328;2024-02-23T13:04:43;2.28;;;0.70;;
37455;SDS011;23316;50.718;7.328;2024-02-23T13:07:14;2.38;;;0.60;;
37455;SDS011;23316;50.718;7.328;2024-02-23T13:09:42;2.22;;;0.63;;
37455;SDS011;23316;50.718;7.328;2024-02-23T13:12:09;2.42;;;0.70;;
37455;SDS011;23316;50.718;7.328;2024-02-23T13:14:37;1.35;;;0.50;;
37455;SDS011;23316;50.718;7.328;2024-02-23T13:17:05;1.73;;;0.63;;
37455;SDS011;23316;50.718;7.328;2024-02-23T13:19:32;2.20;;;0.55;;
37455;SDS011;23316;50.718;7.328;2024-02-23T13:22:00;1.88;;;0.55;;
37455;SDS011;23316;50.718;7.328;2024-02-23T13:24:27;10.40;;;1.10;;
37455;SDS011;23316;50.718;7.328;2024-02-23T13:26:54;10.73;;;0.88;;
37455;SDS011;23316;50.718;7.328;2024-02-23T13:29:22;1.95;;;0.60;;
37455;SDS011;23316;50.718;7.328;2024-02-23T13:31:49;2.70;;;0.90;;
37455;SDS011;23316;50.718;7.328;2024-02-23T13:34:17;6.57;;;0.80;;
37455;SDS011;23316;50.718;7.328;2024-02-23T13:36:45;8.30;;;1.08;;
37455;SDS011;23316;50.718;7.328;2024-02-23T13:39:13;6.95;;;0.80;;
37455;SDS011;23316;50.718;7.328;2024-02-23T13:41:40;3.65;;;0.68;;
37455;SDS011;23316;50.718;7.328;2024-02-23T13:44:07;2.47;;;0.68;;
37455;SDS011;23316;50.718;7.328;2024-02-23T13:46:35;7.18;;;1.35;;
37455;SDS011;23316;50.718;7.328;2024-02-23T13:49:05;2.38;;;0.65;;
37455;SDS011;23316;50.718;7.328;2024-02-23T13:51:36;4.72;;;0.73;;
37455;SDS011;23316;50.718;7.328;2024-02-23T13:54:04;9.98;;;0.55;;
37455;SDS011;23316;50.718;7.328;2024-02-23T13:56:31;1.52;;;0.55;;
37455;SDS011;23316;50.718;7.328;2024-02-23T13:58:59;2.40;;;0.63;;
37455;SDS011;23316;50.718;7.328;2024-02-23T14:01:26;2.35;;;0.63;;
37455;SDS011;23316;50.718;7.328;2024-02-23T14:03:54;2.83;;;0.65;;
37455;SDS011;23316;50.718;7.328;2024-02-23T14:06:21;6.78;;;0.60;;
37455;SDS011;23316;50.718;7.328;2024-02-23T14:08:50;4.22;;;0.85;;
37455;SDS011;23316;50.718;7.328;2024-02-23T14:11:18;2.90;;;0.50;;
37455;SDS011;23316;50.718;7.328;2024-02-23T14:13:45;1.35;;;0.50;;
37455;SDS011;23316;50.718;7.328;2024-02-23T14:16:12;2.65;;;0.65;;
37455;SDS011;23316;50.718;7.328;2024-02-23T14:18:39;2.60;;;0.88;;
37455;SDS011;23316;50.718;7.328;2024-02-23T14:21:09;5.03;;;0.73;;
37455;SDS011;23316;50.718;7.328;2024-02-23T14:23:39;1.33;;;0.40;;
37455;SDS011;23316;50.718;7.328;2024-02-23T14:26:08;2.60;;;0.50;;
37455;SDS011;23316;50.718;7.328;2024-02-23T14:28:35;1.08;;;0.50;;
37455;SDS011;23316;50.718;7.328;2024-02-23T14:31:03;2.55;;;0.65;;
37455;SDS011;23316;50.718;7.328;2024-02-23T14:33:31;1.25;;;0.60;;
37455;SDS011;23316;50.718;7.328;2024-02-23T14:35:59;1.90;;;0.77;;
37455;SDS011;23316;50.718;7.328;2024-02-23T14:38:26;3.75;;;0.70;;
37455;SDS011;23316;50.718;7.328;2024-02-23T14:40:53;2.30;;;0.60;;
37455;SDS011;23316;50.718;7.328;2024-02-23T14:43:22;1.15;;;0.60;;
37455;SDS011;23316;50.718;7.328;2024-02-23T14:45:49;2.88;;;0.65;;
37455;SDS011;23316;50.718;7.328;2024-02-23T14:48:18;0.70;;;0.40;;
37455;SDS011;23316;50.718;7.328;2024-02-23T14:50:45;1.63;;;0.40;;
37455;SDS011;23316;50.718;7.328;2024-02-23T14:53:12;1.20;;;0.40;;
37455;SDS011;23316;50.718;7.328;2024-02-23T14:55:39;1.27;;;0.57;;
37455;SDS011;23316;50.718;7.328;2024-02-23T14:58:07;1.55;;;0.47;;
37455;SDS011;23316;50.718;7.328;2024-02-23T15:00:36;2.10;;;0.50;;
37455;SDS011;23316;50.718;7.328;2024-02-23T15:03:03;1.13;;;0.60;;
37455;SDS011;23316;50.718;7.328;2024-02-23T15:05:31;0.85;;;0.40;;
37455;SDS011;23316;50.718;7.328;2024-02-23T15:07:58;3.90;;;0.55;;
37455;SDS011;23316;50.718;7.328;2024-02-23T15:10:25;6.90;;;1.10;;
37455;SDS011;23316;50.718;7.328;2024-02-23T15:12:55;5.60;;;0.80;;
37455;SDS011;23316;50.718;7.328;2024-02-23T15:15:22;1.98;;;0.73;;
37455;SDS011;23316;50.718;7.328;2024-02-23T15:17:50;6.60;;;0.88;;